createdAt,value
2022-08-05T00:02:11.586Z,101429.94
2022-08-05T00:04:40.307Z,101431.44
2022-08-05T00:07:59.034Z,101431.25
2022-08-05T00:10:00.009Z,101425.88
2022-08-05T00:12:27.690Z,101429.19
2022-08-05T00:14:55.325Z,101428.34
2022-08-05T00:17:23.010Z,101444.31
2022-08-05T00:20:02.544Z,101447.84
2022-08-05T00:22:32.124Z,101434.81
2022-08-05T00:24:59.733Z,101442.69
2022-08-05T00:27:36.179Z,101446.22
2022-08-05T00:30:05.105Z,101455.94
2022-08-05T00:32:39.157Z,101450.38
2022-08-05T00:35:09.241Z,101458.84
2022-08-05T00:37:53.103Z,101477.09
2022-08-05T00:40:28.425Z,101485.97
2022-08-05T00:42:57.934Z,101491.13
2022-08-05T00:45:38.267Z,101493.03
2022-08-05T00:48:08.017Z,101490.78
2022-08-05T00:50:36.332Z,101493.03
2022-08-05T00:53:09.892Z,101516.25
2022-08-05T00:55:53.376Z,101519.09
2022-08-05T00:58:20.961Z,101516.13
2022-08-05T01:00:54.981Z,101524.41
2022-08-05T01:03:23.508Z,101534.75
2022-08-05T01:05:51.425Z,101534.53
2022-08-05T01:08:41.548Z,101525.75
2022-08-05T01:11:13.691Z,101517.69
2022-08-05T01:13:57.678Z,101515.69
2022-08-05T01:16:31.834Z,101521.66
2022-08-05T01:19:20.229Z,101512.34
2022-08-05T01:22:06.406Z,101516.31
2022-08-05T01:25:01.146Z,101539.06
2022-08-05T01:27:55.808Z,101514.84
2022-08-05T01:30:33.759Z,101487.31
2022-08-05T01:33:08.097Z,101469.06
2022-08-05T01:35:51.657Z,101482.31
2022-08-05T01:38:27.292Z,101459.97
2022-08-05T01:41:01.283Z,101448.56
2022-08-05T01:43:32.759Z,101443.06
2022-08-05T01:46:07.317Z,101457.13
2022-08-05T01:48:46.150Z,101472.06
2022-08-05T01:51:18.969Z,101475.97
2022-08-05T01:53:57.449Z,101473.03
2022-08-05T01:58:29.946Z,101441.16
2022-08-05T01:59:23.987Z,101435.59
2022-08-05T02:01:57.755Z,101435.38
2022-08-05T02:04:29.089Z,101430.03
2022-08-05T02:06:59.291Z,101432.53
2022-08-05T02:09:28.054Z,101405.03
2022-08-05T02:12:03.980Z,101401.13
2022-08-05T02:14:38.353Z,101390.81
2022-08-05T02:17:16.749Z,101385.88
2022-08-05T02:20:03.001Z,101369.75
2022-08-05T02:22:34.114Z,101334.63
2022-08-05T02:25:06.530Z,101309.63
2022-08-05T02:27:57.991Z,101298.25
2022-08-05T02:30:34.517Z,101348.75
2022-08-05T02:33:03.691Z,101390.13
2022-08-05T02:35:37.857Z,101403.94
2022-08-05T02:38:19.344Z,101416.53
2022-08-05T02:40:48.073Z,101401.00
2022-08-05T02:43:17.808Z,101399.75
2022-08-05T02:45:52.061Z,101399.75
2022-08-05T02:48:29.112Z,101383.22
2022-08-05T02:50:59.638Z,101355.72
2022-08-05T02:53:27.799Z,101330.44
2022-08-05T02:56:00.313Z,101316.88
2022-08-05T02:58:30.568Z,101317.50
2022-08-05T03:01:02.394Z,101310.88
2022-08-05T03:03:33.744Z,101305.50
2022-08-05T03:06:55.892Z,101309.31
2022-08-05T03:08:52.136Z,101310.94
2022-08-05T03:11:55.096Z,101341.19
2022-08-05T03:14:09.072Z,101380.03
2022-08-05T03:16:42.205Z,101380.66
2022-08-05T03:19:12.769Z,101368.81
2022-08-05T03:21:48.619Z,101357.19
2022-08-05T03:24:18.264Z,101365.91
2022-08-05T03:26:57.493Z,101361.09
2022-08-05T03:29:45.520Z,101387.97
2022-08-05T03:32:16.184Z,101398.50
2022-08-05T03:34:50.820Z,101431.78
2022-08-05T03:37:20.378Z,101427.03
2022-08-05T03:39:59.433Z,101418.16
2022-08-05T03:42:32.421Z,101418.34
2022-08-05T03:45:22.124Z,101434.13
2022-08-05T03:47:52.044Z,101421.09
2022-08-05T03:50:25.781Z,101407.44
2022-08-05T03:55:53.870Z,101411.78
2022-08-05T03:56:11.437Z,101406.00
2022-08-05T03:58:43.584Z,101418.63
2022-08-05T04:01:14.165Z,101431.25
2022-08-05T04:04:09.501Z,101434.50
2022-08-05T04:06:35.785Z,101413.78
2022-08-05T04:09:06.326Z,101420.13
2022-08-05T04:11:47.310Z,101421.19
2022-08-05T04:14:30.008Z,101432.56
2022-08-05T04:16:59.717Z,101442.66
2022-08-05T04:19:29.372Z,101451.13
2022-08-05T04:22:08.640Z,101451.75
2022-08-05T04:24:43.807Z,101448.56
2022-08-05T04:27:13.189Z,101455.03
2022-08-05T04:29:41.380Z,101462.66
2022-08-05T04:32:09.767Z,101475.88
2022-08-05T04:34:43.131Z,101476.91
2022-08-05T04:37:11.708Z,101476.56
2022-08-05T04:39:40.623Z,101470.59
2022-08-05T04:42:09.198Z,101466.22
2022-08-05T04:44:36.888Z,101462.91
2022-08-05T04:47:08.753Z,101446.97
2022-08-05T04:50:02.886Z,101444.44
2022-08-05T04:52:36.853Z,101438.06
2022-08-05T04:55:14.548Z,101435.81
2022-08-05T04:57:48.039Z,101431.91
2022-08-05T05:00:23.296Z,101454.31
2022-08-05T05:02:51.565Z,101460.50
2022-08-05T05:05:28.394Z,101464.22
2022-08-05T05:08:01.848Z,101461.91
2022-08-05T05:10:30.176Z,101471.22
2022-08-05T05:12:57.837Z,101473.66
2022-08-05T05:15:56.495Z,101477.34
2022-08-05T05:18:14.928Z,101485.63
2022-08-05T05:20:57.590Z,101479.41
2022-08-05T05:23:26.269Z,101457.75
2022-08-05T05:25:53.826Z,101445.88
2022-08-05T05:28:21.453Z,101472.00
2022-08-05T05:30:49.858Z,101476.16
2022-08-05T05:33:17.863Z,101475.81
2022-08-05T05:35:51.138Z,101491.22
2022-08-05T05:38:22.431Z,101479.25
2022-08-05T05:40:55.651Z,101464.91
2022-08-05T05:43:57.319Z,101473.03
2022-08-05T05:46:17.845Z,101460.44
2022-08-05T05:48:47.828Z,101469.66
2022-08-05T05:51:20.669Z,101474.16
2022-08-05T05:53:58.196Z,101479.16
2022-08-05T05:56:32.470Z,101480.78
2022-08-05T05:59:03.199Z,101481.44
2022-08-05T06:01:36.963Z,101493.81
2022-08-05T06:04:07.460Z,101506.16
2022-08-05T06:06:35.451Z,101489.25
2022-08-05T06:09:05.088Z,101480.22
2022-08-05T06:11:32.900Z,101482.84
2022-08-05T06:14:00.763Z,101474.31
2022-08-05T06:16:32.731Z,101488.00
2022-08-05T06:19:01.078Z,101484.81
2022-08-05T06:21:36.645Z,101474.50
2022-08-05T06:24:11.911Z,101482.25
2022-08-05T06:26:51.759Z,101485.31
2022-08-05T06:29:25.286Z,101482.38
2022-08-05T06:32:21.183Z,101483.44
2022-08-05T06:34:56.080Z,101491.00
2022-08-05T06:37:56.446Z,101488.63
2022-08-05T06:40:18.460Z,101505.44
2022-08-05T06:42:51.690Z,101488.38
2022-08-05T06:45:20.658Z,101489.63
2022-08-05T06:48:36.146Z,101494.56
2022-08-05T06:50:36.790Z,101498.34
2022-08-05T06:53:11.437Z,101506.03
2022-08-05T06:55:51.322Z,101510.28
2022-08-05T06:58:29.775Z,101502.06
2022-08-05T07:01:02.790Z,101512.47
2022-08-05T07:03:32.552Z,101513.59
2022-08-05T07:06:05.416Z,101512.09
2022-08-05T07:08:41.972Z,101520.88
2022-08-05T07:11:15.383Z,101514.06
2022-08-05T07:14:01.162Z,101520.03
2022-08-05T07:18:01.615Z,101528.97
2022-08-05T07:22:29.031Z,101519.78
2022-08-05T07:24:58.764Z,101531.78
2022-08-05T07:27:56.574Z,101530.63
2022-08-05T07:30:22.933Z,101521.50
2022-08-05T07:32:55.923Z,101529.47
2022-08-05T07:36:03.088Z,101518.78
2022-08-05T07:38:26.377Z,101510.81
2022-08-05T07:41:16.694Z,101515.13
2022-08-05T07:43:50.878Z,101522.09
2022-08-05T07:46:25.093Z,101524.44
2022-08-05T07:49:02.247Z,101521.94
2022-08-05T07:51:36.739Z,101519.78
2022-08-05T07:54:06.185Z,101518.63
2022-08-05T07:57:00.887Z,101515.81
2022-08-05T07:59:38.133Z,101526.22
2022-08-05T08:02:15.204Z,101517.06
2022-08-05T08:04:45.617Z,101510.28
2022-08-05T08:07:13.583Z,101509.91
2022-08-05T08:09:41.213Z,101501.00
2022-08-05T08:12:29.656Z,101507.81
2022-08-05T08:15:02.168Z,101490.56
2022-08-05T08:17:30.721Z,101498.09
2022-08-05T08:20:21.107Z,101489.78
2022-08-05T08:22:51.824Z,101501.66
2022-08-05T08:25:26.762Z,101493.53
2022-08-05T08:28:18.346Z,101491.00
2022-08-05T08:30:49.710Z,101499.19
2022-08-05T08:33:19.164Z,101485.81
2022-08-05T08:35:53.167Z,101484.75
2022-08-05T08:38:35.380Z,101492.50
2022-08-05T08:41:07.060Z,101481.22
2022-08-05T08:45:23.068Z,101496.53
2022-08-05T08:46:28.344Z,101499.53
2022-08-05T08:49:04.938Z,101495.13
2022-08-05T08:52:02.821Z,101500.66
2022-08-05T08:54:27.619Z,101500.38
2022-08-05T08:56:56.632Z,101492.19
2022-08-05T08:59:27.664Z,101499.59
2022-08-05T09:02:06.080Z,101496.16
2022-08-05T09:04:58.154Z,101492.41
2022-08-05T09:07:28.633Z,101500.38
2022-08-05T09:09:57.339Z,101503.41
2022-08-05T09:12:30.150Z,101503.78
2022-08-05T09:15:06.243Z,101506.34
2022-08-05T09:17:42.481Z,101511.91
2022-08-05T09:20:36.404Z,101503.69
2022-08-05T09:23:19.881Z,101506.88
2022-08-05T09:26:01.098Z,101504.09
2022-08-05T09:28:33.841Z,101506.50
2022-08-05T09:31:22.068Z,101523.25
2022-08-05T09:33:55.350Z,101517.06
2022-08-05T09:36:27.706Z,101519.13
2022-08-05T09:39:02.573Z,101518.28
2022-08-05T09:41:32.923Z,101525.97
2022-08-05T09:44:06.087Z,101515.44
2022-08-05T09:46:35.514Z,101523.97
2022-08-05T09:49:19.533Z,101531.13
2022-08-05T09:51:49.437Z,101528.59
2022-08-05T09:54:28.837Z,101527.44
2022-08-05T09:57:01.603Z,101517.16
2022-08-05T09:59:34.883Z,101526.00
2022-08-05T10:02:04.832Z,101513.63
2022-08-05T10:04:40.830Z,101505.16
2022-08-05T10:07:20.134Z,101505.63
2022-08-05T10:10:04.156Z,101509.03
2022-08-05T10:12:49.203Z,101507.00
2022-08-05T10:15:23.181Z,101507.09
2022-08-05T10:18:14.267Z,101511.00
2022-08-05T10:20:48.787Z,101514.91
2022-08-05T10:23:34.413Z,101522.56
2022-08-05T10:26:14.270Z,101528.94
2022-08-05T10:28:42.360Z,101531.16
2022-08-05T10:32:50.933Z,101536.66
2022-08-05T10:33:57.727Z,101542.72
2022-08-05T10:36:27.201Z,101544.78
2022-08-05T10:39:01.623Z,101540.09
2022-08-05T10:41:46.994Z,101531.28
2022-08-05T10:44:19.209Z,101535.53
2022-08-05T10:46:50.598Z,101538.50
2022-08-05T10:49:18.689Z,101538.78
2022-08-05T10:52:00.374Z,101533.59
2022-08-05T10:55:02.750Z,101548.94
2022-08-05T10:57:32.063Z,101547.22
2022-08-05T11:00:19.806Z,101548.19
2022-08-05T11:03:25.226Z,101535.38
2022-08-05T11:06:06.037Z,101539.19
2022-08-05T11:08:39.184Z,101536.25
2022-08-05T11:11:44.743Z,101540.84
2022-08-05T11:14:56.261Z,101538.38
2022-08-05T11:17:57.209Z,101546.38
2022-08-05T11:20:44.117Z,101546.97
2022-08-05T11:24:04.590Z,101550.53
2022-08-05T11:26:28.049Z,101544.88
2022-08-05T11:29:06.690Z,101533.78
2022-08-05T11:31:56.485Z,101538.31
2022-08-05T11:34:37.974Z,101540.50
2022-08-05T11:38:26.247Z,101542.59
2022-08-05T11:40:00.788Z,101542.31
2022-08-05T11:42:37.920Z,101548.59
2022-08-05T11:45:14.478Z,101540.81
2022-08-05T11:47:55.063Z,101554.50
2022-08-05T11:50:22.902Z,101544.75
2022-08-05T11:52:54.388Z,101551.97
2022-08-05T11:55:32.181Z,101562.69
2022-08-05T11:58:09.742Z,101565.75
2022-08-05T12:00:44.155Z,101568.50
2022-08-05T12:03:28.448Z,101574.00
2022-08-05T12:06:05.970Z,101577.34
2022-08-05T12:08:50.077Z,101583.09
2022-08-05T12:11:20.815Z,101596.63
2022-08-05T12:13:58.711Z,101592.72
2022-08-05T12:16:29.762Z,101591.63
2022-08-05T12:18:57.355Z,101582.53
2022-08-05T12:21:30.266Z,101592.22
2022-08-05T12:24:04.902Z,101591.03
2022-08-05T12:26:33.714Z,101581.59
2022-08-05T12:29:03.460Z,101584.97
2022-08-05T12:31:41.535Z,101580.84
2022-08-05T12:34:20.519Z,101581.13
2022-08-05T12:36:50.636Z,101577.16
2022-08-05T12:39:19.096Z,101574.44
2022-08-05T12:41:47.122Z,101573.34
2022-08-05T12:44:33.012Z,101573.44
2022-08-05T12:47:02.824Z,101575.19
2022-08-05T12:50:02.329Z,101576.25
2022-08-05T12:52:35.273Z,101584.72
2022-08-05T12:55:22.648Z,101584.09
2022-08-05T12:58:50.692Z,101584.41
2022-08-05T13:02:03.681Z,101583.59
2022-08-05T13:03:33.249Z,101575.91
2022-08-05T13:06:02.337Z,101574.41
2022-08-05T13:08:32.255Z,101575.16
2022-08-05T13:11:01.306Z,101573.56
2022-08-05T13:14:05.024Z,101566.22
2022-08-05T13:16:19.453Z,101570.59
2022-08-05T13:18:52.757Z,101567.94
2022-08-05T13:21:23.172Z,101566.34
2022-08-05T13:23:56.243Z,101565.53
2022-08-05T13:26:30.087Z,101573.97
2022-08-05T13:28:59.115Z,101562.84
2022-08-05T13:31:33.731Z,101572.13
2022-08-05T13:34:22.453Z,101578.13
2022-08-05T13:36:53.020Z,101583.25
2022-08-05T13:39:24.418Z,101571.00
2022-08-05T13:42:14.247Z,101579.69
2022-08-05T13:44:45.303Z,101585.88
2022-08-05T13:47:34.843Z,101588.00
2022-08-05T13:50:04.362Z,101572.38
2022-08-05T13:52:35.203Z,101571.44
2022-08-05T13:55:07.980Z,101574.59
2022-08-05T13:57:51.418Z,101572.91
2022-08-05T14:00:26.993Z,101576.09
2022-08-05T14:02:57.375Z,101575.94
2022-08-05T14:05:48.200Z,101580.84
2022-08-05T14:08:20.066Z,101580.75
2022-08-05T14:10:49.829Z,101581.56
2022-08-05T14:13:17.473Z,101568.69
2022-08-05T14:16:04.602Z,101571.06
2022-08-05T14:18:34.538Z,101573.09
2022-08-05T14:22:07.883Z,101566.69
2022-08-05T14:23:53.311Z,101568.91
2022-08-05T14:26:37.066Z,101565.44
2022-08-05T14:29:16.220Z,101567.22
2022-08-05T14:32:02.702Z,101569.56
2022-08-05T14:34:35.412Z,101590.47
2022-08-05T14:37:03.538Z,101590.59
2022-08-05T14:39:31.897Z,101587.44
2022-08-05T14:42:29.254Z,101601.00
2022-08-05T14:44:57.136Z,101603.88
2022-08-05T14:48:02.840Z,101599.94
2022-08-05T14:50:19.100Z,101609.38
2022-08-05T14:52:53.633Z,101601.56
2022-08-05T14:55:25.588Z,101604.50
2022-08-05T14:57:54.315Z,101603.16
2022-08-05T15:00:28.248Z,101616.72
2022-08-05T15:02:58.159Z,101619.00
2022-08-05T15:05:30.214Z,101630.56
2022-08-05T15:08:58.036Z,101631.91
2022-08-05T15:11:03.539Z,101639.66
2022-08-05T15:13:46.187Z,101626.13
2022-08-05T15:16:17.853Z,101621.38
2022-08-05T15:18:47.230Z,101629.63
2022-08-05T15:21:16.315Z,101635.66
2022-08-05T15:23:49.133Z,101627.28
2022-08-05T15:26:17.433Z,101634.69
2022-08-05T15:29:00.233Z,101639.31
2022-08-05T15:31:34.793Z,101646.50
2022-08-05T15:34:19.353Z,101646.50
2022-08-05T15:36:51.634Z,101655.34
2022-08-05T15:41:03.268Z,101638.84
2022-08-05T15:42:53.726Z,101646.03
2022-08-05T15:44:54.993Z,101645.44
2022-08-05T15:47:22.879Z,101644.84
2022-08-05T15:49:58.688Z,101648.31
2022-08-05T15:52:51.549Z,101652.31
2022-08-05T15:55:16.556Z,101656.16
2022-08-05T15:57:45.043Z,101661.34
2022-08-05T16:00:16.815Z,101678.38
2022-08-05T16:02:53.504Z,101689.66
2022-08-05T16:05:22.770Z,101692.72
2022-08-05T16:07:57.429Z,101711.13
2022-08-05T16:10:25.452Z,101707.78
2022-08-05T16:12:55.848Z,101710.97
2022-08-05T16:15:24.037Z,101728.84
2022-08-05T16:18:00.488Z,101734.72
2022-08-05T16:20:31.746Z,101737.38
2022-08-05T16:23:01.397Z,101742.63
2022-08-05T16:25:33.861Z,101756.75
2022-08-05T16:28:05.521Z,101753.88
2022-08-05T16:30:36.026Z,101757.81
2022-08-05T16:33:04.063Z,101760.69
2022-08-05T16:35:33.783Z,101761.94
2022-08-05T16:38:24.298Z,101766.25
2022-08-05T16:40:55.632Z,101769.38
2022-08-05T16:43:30.110Z,101785.31
2022-08-05T16:46:03.965Z,101776.41
2022-08-05T16:48:37.440Z,101777.03
2022-08-05T16:51:09.023Z,101783.91
2022-08-05T16:54:04.214Z,101786.78
2022-08-05T16:56:29.111Z,101787.22
2022-08-05T16:58:57.445Z,101796.31
2022-08-05T17:01:25.216Z,101805.66
2022-08-05T17:03:52.869Z,101790.94
2022-08-05T17:06:24.780Z,101784.13
2022-08-05T17:08:54.656Z,101787.22
2022-08-05T17:11:23.914Z,101795.09
2022-08-05T17:14:00.162Z,101791.13
2022-08-05T17:16:36.146Z,101793.00
2022-08-05T17:19:07.278Z,101801.09
2022-08-05T17:21:36.891Z,101799.38
2022-08-05T17:24:28.282Z,101797.91
2022-08-05T17:26:56.893Z,101795.66
2022-08-05T17:29:34.005Z,101803.31
2022-08-05T17:32:11.751Z,101803.53
2022-08-05T17:34:47.900Z,101810.75
2022-08-05T17:37:40.721Z,101808.03
2022-08-05T17:40:10.308Z,101818.59
2022-08-05T17:42:41.818Z,101812.19
2022-08-05T17:45:20.758Z,101807.66
2022-08-05T17:47:53.924Z,101807.88
2022-08-05T17:50:28.235Z,101799.38
2022-08-05T17:52:56.754Z,101797.09
2022-08-05T17:55:27.574Z,101817.59
2022-08-05T17:58:02.462Z,101826.50
2022-08-05T18:00:30.800Z,101836.41
2022-08-05T18:02:58.779Z,101830.63
2022-08-05T18:05:28.119Z,101832.31
2022-08-05T18:07:56.717Z,101848.47
2022-08-05T18:10:26.251Z,101844.53
2022-08-05T18:12:53.878Z,101862.50
2022-08-05T18:15:22.245Z,101851.13
2022-08-05T18:17:58.634Z,101874.31
2022-08-05T18:20:31.878Z,101880.09
2022-08-05T18:23:09.509Z,101876.34
2022-08-05T18:25:45.155Z,101888.75
2022-08-05T18:28:16.223Z,101888.13
2022-08-05T18:30:44.642Z,101886.84
2022-08-05T18:33:13.641Z,101892.03
2022-08-05T18:36:01.398Z,101893.88
2022-08-05T18:38:30.599Z,101897.34
2022-08-05T18:41:55.214Z,101889.47
2022-08-05T18:43:48.651Z,101903.31
2022-08-05T18:46:19.940Z,101898.00
2022-08-05T18:48:48.381Z,101900.50
2022-08-05T18:52:04.098Z,101898.19
2022-08-05T18:54:25.085Z,101908.16
2022-08-05T18:56:54.062Z,101913.13
2022-08-05T18:59:42.751Z,101910.44
2022-08-05T19:02:26.287Z,101914.16
2022-08-05T19:05:02.500Z,101915.78
2022-08-05T19:07:46.222Z,101913.66
2022-08-05T19:10:14.744Z,101918.81
2022-08-05T19:12:43.762Z,101918.59
2022-08-05T19:15:56.948Z,101918.16
2022-08-05T19:18:09.239Z,101921.81
2022-08-05T19:20:41.493Z,101931.50
2022-08-05T19:24:03.843Z,101933.34
2022-08-05T19:26:01.958Z,101942.38
2022-08-05T19:28:32.785Z,101944.59
2022-08-05T19:31:04.868Z,101944.38
2022-08-05T19:33:36.196Z,101951.16
2022-08-05T19:36:06.490Z,101948.06
2022-08-05T19:38:35.847Z,101962.69
2022-08-05T19:41:07.429Z,101961.03
2022-08-05T19:44:06.429Z,101970.72
2022-08-05T19:46:29.513Z,101972.31
2022-08-05T19:49:00.889Z,101973.09
2022-08-05T19:52:04.498Z,101971.81
2022-08-05T19:54:25.607Z,101982.72
2022-08-05T19:56:58.820Z,101983.94
2022-08-05T19:59:55.339Z,101988.06
2022-08-05T20:02:17.536Z,101988.44
2022-08-05T20:04:46.134Z,101983.47
2022-08-05T20:07:47.386Z,101985.69
2022-08-05T20:10:08.266Z,101985.03
2022-08-05T20:12:46.172Z,101986.25
2022-08-05T20:15:48.707Z,101993.66
2022-08-05T20:18:10.089Z,101987.00
2022-08-05T20:20:55.909Z,101987.34
2022-08-05T20:23:40.239Z,101986.09
2022-08-05T20:26:16.001Z,101994.53
2022-08-05T20:28:44.453Z,101993.06
2022-08-05T20:31:13.742Z,101999.81
2022-08-05T20:33:44.528Z,101998.34
2022-08-05T20:36:14.361Z,101999.56
2022-08-05T20:38:54.590Z,101997.25
2022-08-05T20:41:43.335Z,102004.00
2022-08-05T20:44:17.050Z,102007.91
2022-08-05T20:46:48.993Z,102016.13
2022-08-05T20:49:18.436Z,102016.69
2022-08-05T20:51:53.835Z,102024.75
2022-08-05T20:54:21.663Z,102029.28
2022-08-05T20:56:49.314Z,102035.84
2022-08-05T20:59:19.372Z,102031.88
2022-08-05T21:01:57.925Z,102038.44
2022-08-05T21:04:27.118Z,102036.50
2022-08-05T21:06:55.038Z,102040.56
2022-08-05T21:09:23.578Z,102032.25
2022-08-05T21:12:09.991Z,102045.38
2022-08-05T21:14:39.572Z,102045.13
2022-08-05T21:17:08.505Z,102044.66
2022-08-05T21:19:47.232Z,102046.03
2022-08-05T21:22:21.845Z,102055.28
2022-08-05T21:24:52.424Z,102058.47
2022-08-05T21:27:25.455Z,102059.06
2022-08-05T21:29:55.475Z,102056.75
2022-08-05T21:32:26.941Z,102058.94
2022-08-05T21:35:06.950Z,102070.03
2022-08-05T21:37:47.200Z,102076.75
2022-08-05T21:40:16.581Z,102073.44
2022-08-05T21:42:45.666Z,102069.28
2022-08-05T21:45:26.403Z,102082.19
2022-08-05T21:48:06.548Z,102084.22
2022-08-05T21:50:36.801Z,102089.75
2022-08-05T21:53:16.324Z,102082.06
2022-08-05T21:56:04.234Z,102092.34
2022-08-05T21:58:32.932Z,102093.34
2022-08-05T22:01:01.352Z,102087.34
2022-08-05T22:03:52.088Z,102093.03
2022-08-05T22:06:23.085Z,102096.06
2022-08-05T22:09:15.145Z,102090.88
2022-08-05T22:11:43.433Z,102095.75
2022-08-05T22:14:33.526Z,102096.94
2022-08-05T22:17:05.405Z,102099.16
2022-08-05T22:20:03.414Z,102101.19
2022-08-05T22:22:27.921Z,102113.91
2022-08-05T22:25:18.147Z,102112.59
2022-08-05T22:28:09.619Z,102104.94
2022-08-05T22:30:55.401Z,102113.59
2022-08-05T22:33:57.049Z,102112.25
2022-08-05T22:36:15.503Z,102112.19
2022-08-05T22:38:47.909Z,102121.03
2022-08-05T22:42:04.480Z,102117.38
2022-08-05T22:44:04.738Z,102119.56
2022-08-05T22:46:32.878Z,102121.59
2022-08-05T22:49:00.457Z,102122.94
2022-08-05T22:52:02.718Z,102129.66
2022-08-05T22:54:16.985Z,102135.38
2022-08-05T22:56:44.630Z,102124.38
2022-08-05T22:59:48.265Z,102138.75
2022-08-05T23:02:07.541Z,102132.28
2022-08-05T23:04:36.374Z,102137.97
2022-08-05T23:07:07.171Z,102143.31
2022-08-05T23:09:57.702Z,102140.66
2022-08-05T23:12:24.461Z,102151.53
2022-08-05T23:14:52.403Z,102154.38
2022-08-05T23:17:34.953Z,102162.41
2022-08-05T23:20:15.514Z,102167.13
2022-08-05T23:22:48.536Z,102167.94
2022-08-05T23:25:17.685Z,102165.44
2022-08-05T23:28:06.843Z,102164.59
2022-08-05T23:30:40.671Z,102173.31
2022-08-05T23:33:15.940Z,102173.47
2022-08-05T23:35:49.418Z,102176.50
2022-08-05T23:38:19.028Z,102181.19
2022-08-05T23:40:49.950Z,102172.50
2022-08-05T23:43:25.843Z,102177.38
2022-08-05T23:46:19.814Z,102174.06
2022-08-05T23:48:59.876Z,102170.03
2022-08-05T23:51:54.218Z,102172.06
2022-08-05T23:54:29.875Z,102169.25
2022-08-05T23:57:04.042Z,102168.56
